createdAt,value
2023-04-18T00:00:21.640Z,84.05
2023-04-18T00:01:21.600Z,84.05
2023-04-18T00:02:21.645Z,83.94
2023-04-18T00:03:21.848Z,83.84
2023-04-18T00:04:22.083Z,84.05
2023-04-18T00:05:21.640Z,84.05
2023-04-18T00:06:21.576Z,83.84
2023-04-18T00:07:21.512Z,83.53
2023-04-18T00:08:21.516Z,83.42
2023-04-18T00:09:21.501Z,83.42
2023-04-18T00:10:21.464Z,83.42
2023-04-18T00:11:21.545Z,83.01
2023-04-18T00:12:21.786Z,82.81
2023-04-18T00:13:21.574Z,82.70
2023-04-18T00:14:21.439Z,82.91
2023-04-18T00:15:21.405Z,82.60
2023-04-18T00:16:21.433Z,82.50
2023-04-18T00:17:21.396Z,82.19
2023-04-18T00:18:21.366Z,81.98
2023-04-18T00:19:21.390Z,81.74
2023-04-18T00:20:21.438Z,81.95
2023-04-18T00:21:21.347Z,82.05
2023-04-18T00:22:21.363Z,81.95
2023-04-18T00:23:21.364Z,81.63
2023-04-18T00:24:21.307Z,81.63
2023-04-18T00:25:21.300Z,81.43
2023-04-18T00:26:21.287Z,81.43
2023-04-18T00:27:21.269Z,81.84
2023-04-18T00:28:21.278Z,80.91
2023-04-18T00:29:21.455Z,80.61
2023-04-18T00:30:21.230Z,80.61
2023-04-18T00:31:21.323Z,80.71
2023-04-18T00:32:21.273Z,80.81
2023-04-18T00:33:21.216Z,80.51
2023-04-18T00:34:21.194Z,80.71
2023-04-18T00:35:21.201Z,80.61
2023-04-18T00:36:21.200Z,80.40
2023-04-18T00:37:21.178Z,80.40
2023-04-18T00:38:21.164Z,80.40
2023-04-18T00:39:21.145Z,81.02
2023-04-18T00:40:21.139Z,80.81
2023-04-18T00:41:21.126Z,80.71
2023-04-18T00:42:21.101Z,80.51
2023-04-18T00:43:21.111Z,80.40
2023-04-18T00:44:21.071Z,80.19
2023-04-18T00:45:21.089Z,79.99
2023-04-18T00:46:21.094Z,79.88
2023-04-18T00:47:21.101Z,79.88
2023-04-18T00:48:21.046Z,79.88
2023-04-18T00:49:21.028Z,80.30
2023-04-18T00:50:21.038Z,79.79
2023-04-18T00:51:21.035Z,79.47
2023-04-18T00:52:21.024Z,79.79
2023-04-18T00:53:20.985Z,79.88
2023-04-18T00:54:21.010Z,79.88
2023-04-18T00:55:20.986Z,79.79
2023-04-18T00:56:20.980Z,79.99
2023-04-18T00:57:20.954Z,79.68
2023-04-18T00:58:20.961Z,79.99
2023-04-18T00:59:20.922Z,79.88
2023-04-18T01:00:21.180Z,79.99
2023-04-18T01:01:20.920Z,80.19
2023-04-18T01:02:21.133Z,80.09
2023-04-18T01:03:20.974Z,80.30
2023-04-18T01:04:20.966Z,80.19
2023-04-18T01:05:20.891Z,80.19
2023-04-18T01:06:20.869Z,80.30
2023-04-18T01:07:20.842Z,80.51
2023-04-18T01:08:20.815Z,80.51
2023-04-18T01:09:32.648Z,80.19
2023-04-18T01:10:22.574Z,80.30
2023-04-18T01:11:20.830Z,80.40
2023-04-18T01:12:20.797Z,80.51
2023-04-18T01:13:20.773Z,80.51
2023-04-18T01:14:20.799Z,80.61
2023-04-18T01:15:20.767Z,80.71
2023-04-18T01:16:20.862Z,80.61
2023-04-18T01:17:20.798Z,80.91
2023-04-18T01:18:20.759Z,80.91
2023-04-18T01:19:20.726Z,81.02
2023-04-18T01:20:20.715Z,81.02
2023-04-18T01:21:20.691Z,80.91
2023-04-18T01:22:30.733Z,81.23
2023-04-18T01:23:20.666Z,81.33
2023-04-18T01:24:20.646Z,81.33
2023-04-18T01:25:30.664Z,81.23
2023-04-18T01:26:20.635Z,81.43
2023-04-18T01:27:20.623Z,81.63
2023-04-18T01:28:20.639Z,81.63
2023-04-18T01:29:20.635Z,81.74
2023-04-18T01:30:20.601Z,81.84
2023-04-18T01:31:20.951Z,82.25
2023-04-18T01:32:20.792Z,82.15
2023-04-18T01:33:20.596Z,82.35
2023-04-18T01:34:20.577Z,82.35
2023-04-18T01:35:20.548Z,82.15
2023-04-18T01:36:20.559Z,82.35
2023-04-18T01:37:20.540Z,82.46
2023-04-18T01:38:20.548Z,82.56
2023-04-18T01:39:20.506Z,82.46
2023-04-18T01:40:20.507Z,82.60
2023-04-18T01:41:20.479Z,82.87
2023-04-18T01:42:20.481Z,82.70
2023-04-18T01:43:20.461Z,82.91
2023-04-18T01:44:20.474Z,82.91
2023-04-18T01:45:20.464Z,82.91
2023-04-18T01:46:20.454Z,83.01
2023-04-18T01:47:20.428Z,83.12
2023-04-18T01:48:20.426Z,83.12
2023-04-18T01:49:20.395Z,83.22
2023-04-18T01:50:20.409Z,83.42
2023-04-18T01:51:20.404Z,83.32
2023-04-18T01:52:20.375Z,83.53
2023-04-18T01:53:20.336Z,83.73
2023-04-18T01:54:20.373Z,83.73
2023-04-18T01:55:20.325Z,83.94
2023-04-18T01:56:20.363Z,84.05
2023-04-18T01:57:20.333Z,83.73
2023-04-18T01:58:20.324Z,83.84
2023-04-18T01:59:20.334Z,83.84
2023-04-18T02:00:20.278Z,83.94
2023-04-18T02:01:20.443Z,83.84
2023-04-18T02:02:20.526Z,84.05
2023-04-18T02:03:20.489Z,84.14
2023-04-18T02:04:21.193Z,84.19
2023-04-18T02:05:20.252Z,83.98
2023-04-18T02:06:20.232Z,84.08
2023-04-18T02:07:20.209Z,84.19
2023-04-18T02:08:20.202Z,84.19
2023-04-18T02:09:20.200Z,84.39
2023-04-18T02:10:20.212Z,84.39
2023-04-18T02:11:20.174Z,84.29
2023-04-18T02:12:20.160Z,84.19
2023-04-18T02:13:20.146Z,84.29
2023-04-18T02:14:20.163Z,84.29
2023-04-18T02:15:20.121Z,84.39
2023-04-18T02:16:20.923Z,84.49
2023-04-18T02:17:20.140Z,84.80
2023-04-18T02:18:20.118Z,84.59
2023-04-18T02:19:20.088Z,84.80
2023-04-18T02:20:20.085Z,84.91
2023-04-18T02:21:20.084Z,84.91
2023-04-18T02:22:20.077Z,85.11
2023-04-18T02:23:20.033Z,85.01
2023-04-18T02:24:20.069Z,85.11
2023-04-18T02:25:20.024Z,85.11
2023-04-18T02:26:20.019Z,85.42
2023-04-18T02:27:19.997Z,85.52
2023-04-18T02:28:19.995Z,85.52
2023-04-18T02:29:19.988Z,85.57
2023-04-18T02:30:19.966Z,85.67
2023-04-18T02:31:19.981Z,85.57
2023-04-18T02:32:20.011Z,85.77
2023-04-18T02:33:19.991Z,85.67
2023-04-18T02:34:19.932Z,85.77
2023-04-18T02:35:19.900Z,85.97
2023-04-18T02:36:19.917Z,85.97
2023-04-18T02:37:19.900Z,86.08
2023-04-18T02:38:19.892Z,86.18
2023-04-18T02:39:19.871Z,86.18
2023-04-18T02:40:19.893Z,86.29
2023-04-18T02:41:19.859Z,86.39
2023-04-18T02:42:19.871Z,86.29
2023-04-18T02:43:19.827Z,86.39
2023-04-18T02:44:19.836Z,86.39
2023-04-18T02:45:19.804Z,86.49
2023-04-18T02:46:19.818Z,86.60
2023-04-18T02:47:19.795Z,86.60
2023-04-18T02:48:19.852Z,86.60
2023-04-18T02:49:19.767Z,86.60
2023-04-18T02:50:19.778Z,86.60
2023-04-18T02:51:19.742Z,86.70
2023-04-18T02:52:19.762Z,86.70
2023-04-18T02:53:19.712Z,86.80
2023-04-18T02:54:19.715Z,86.90
2023-04-18T02:55:19.694Z,87.01
2023-04-18T02:56:19.709Z,86.90
2023-04-18T02:57:19.692Z,87.21
2023-04-18T02:58:19.691Z,87.42
2023-04-18T02:59:19.665Z,87.63
2023-04-18T03:00:19.678Z,87.52
2023-04-18T03:01:19.684Z,87.52
2023-04-18T03:02:19.681Z,87.63
2023-04-18T03:03:19.870Z,87.73
2023-04-18T03:04:19.698Z,87.52
2023-04-18T03:05:19.647Z,87.63
2023-04-18T03:06:19.603Z,87.73
2023-04-18T03:07:19.590Z,87.93
2023-04-18T03:08:19.587Z,87.93
2023-04-18T03:09:19.571Z,88.04
2023-04-18T03:10:19.591Z,88.14
2023-04-18T03:11:19.524Z,88.24
2023-04-18T03:12:19.546Z,88.18
2023-04-18T03:13:19.490Z,88.14
2023-04-18T03:14:19.509Z,88.24
2023-04-18T03:15:19.493Z,88.39
2023-04-18T03:16:19.515Z,88.08
2023-04-18T03:17:19.477Z,87.98
2023-04-18T03:18:19.476Z,88.08
2023-04-18T03:19:19.436Z,88.08
2023-04-18T03:20:19.466Z,88.18
2023-04-18T03:21:19.428Z,88.29
2023-04-18T03:22:19.461Z,88.39
2023-04-18T03:23:19.399Z,88.49
2023-04-18T03:24:19.416Z,88.29
2023-04-18T03:25:19.372Z,88.39
2023-04-18T03:26:19.384Z,88.49
2023-04-18T03:27:19.385Z,88.49
2023-04-18T03:28:19.366Z,88.59
2023-04-18T03:29:19.338Z,88.59
2023-04-18T03:30:19.354Z,88.70
2023-04-18T03:31:19.389Z,88.90
2023-04-18T03:32:19.386Z,89.01
2023-04-18T03:33:19.317Z,89.01
2023-04-18T03:34:19.364Z,89.01
2023-04-18T03:35:19.290Z,89.22
2023-04-18T03:36:19.284Z,89.22
2023-04-18T03:37:19.248Z,89.42
2023-04-18T03:38:19.272Z,89.62
2023-04-18T03:39:19.235Z,89.52
2023-04-18T03:40:19.251Z,89.62
2023-04-18T03:41:19.211Z,89.73
2023-04-18T03:42:19.222Z,89.83
2023-04-18T03:43:19.202Z,90.04
2023-04-18T03:44:19.185Z,90.25
2023-04-18T03:45:19.184Z,90.25
2023-04-18T03:46:19.230Z,90.55
2023-04-18T03:47:19.174Z,90.55
2023-04-18T03:48:19.808Z,90.55
2023-04-18T03:49:19.108Z,90.86
2023-04-18T03:50:19.169Z,91.07
2023-04-18T03:51:19.129Z,91.28
2023-04-18T03:52:19.082Z,91.58
2023-04-18T03:53:19.079Z,91.79
2023-04-18T03:54:19.107Z,92.00
2023-04-18T03:55:19.092Z,92.21
2023-04-18T03:56:19.070Z,92.41
2023-04-18T03:57:19.074Z,92.61
2023-04-18T03:58:19.043Z,92.76
2023-04-18T03:59:19.049Z,93.07
2023-04-18T04:00:19.081Z,93.18
2023-04-18T04:01:18.989Z,93.38
2023-04-18T04:02:19.257Z,93.59
2023-04-18T04:03:19.073Z,93.79
2023-04-18T04:04:19.186Z,94.10
2023-04-18T04:05:19.077Z,94.31
2023-04-18T04:06:18.974Z,94.42
2023-04-18T04:07:18.928Z,94.52
2023-04-18T04:08:18.949Z,94.82
2023-04-18T04:09:18.934Z,94.93
2023-04-18T04:10:18.943Z,95.03
2023-04-18T04:11:18.890Z,95.14
2023-04-18T04:12:18.906Z,95.34
2023-04-18T04:13:18.876Z,95.55
2023-04-18T04:14:18.870Z,95.65
2023-04-18T04:15:18.967Z,95.76
2023-04-18T04:16:18.954Z,95.86
2023-04-18T04:17:18.831Z,95.96
2023-04-18T04:18:18.837Z,96.06
2023-04-18T04:19:18.826Z,96.17
2023-04-18T04:20:18.807Z,96.17
2023-04-18T04:21:21.046Z,96.37
2023-04-18T04:22:18.786Z,96.69
2023-04-18T04:23:18.776Z,96.89
2023-04-18T04:24:18.793Z,97.04
2023-04-18T04:25:18.746Z,97.14
2023-04-18T04:26:18.747Z,97.25
2023-04-18T04:27:18.801Z,97.34
2023-04-18T04:28:18.740Z,97.45
2023-04-18T04:29:18.699Z,97.45
2023-04-18T04:30:18.684Z,97.55
2023-04-18T04:31:18.762Z,97.55
2023-04-18T04:32:18.700Z,97.66
2023-04-18T04:33:18.661Z,97.76
2023-04-18T04:34:18.664Z,97.86
2023-04-18T04:35:18.628Z,97.76
2023-04-18T04:36:19.138Z,97.76
2023-04-18T04:37:18.608Z,97.76
2023-04-18T04:38:18.631Z,97.86
2023-04-18T04:39:18.616Z,97.97
2023-04-18T04:40:18.619Z,97.97
2023-04-18T04:41:18.578Z,97.97
2023-04-18T04:42:18.563Z,97.97
2023-04-18T04:43:18.539Z,97.97
2023-04-18T04:44:18.564Z,98.07
2023-04-18T04:45:18.538Z,98.07
2023-04-18T04:46:18.654Z,98.07
2023-04-18T04:47:18.526Z,98.07
2023-04-18T04:48:18.500Z,98.07
2023-04-18T04:49:18.458Z,98.07
2023-04-18T04:50:18.502Z,98.18
2023-04-18T04:51:18.480Z,98.18
2023-04-18T04:52:18.478Z,98.28
2023-04-18T04:53:18.475Z,98.28
2023-04-18T04:54:18.483Z,98.18
2023-04-18T04:55:18.491Z,98.28
2023-04-18T04:56:18.411Z,98.18
2023-04-18T04:57:18.421Z,98.18
2023-04-18T04:58:18.378Z,98.28
2023-04-18T04:59:18.402Z,98.38
2023-04-18T05:00:18.389Z,98.49
2023-04-18T05:01:18.427Z,98.69
2023-04-18T05:02:18.372Z,98.69
2023-04-18T05:03:18.539Z,98.90
2023-04-18T05:04:18.727Z,98.79
2023-04-18T05:05:18.310Z,98.90
2023-04-18T05:06:18.295Z,98.90
2023-04-18T05:07:18.460Z,98.90
2023-04-18T05:08:18.344Z,99.10
2023-04-18T05:09:18.284Z,98.90
2023-04-18T05:10:18.259Z,99.00
2023-04-18T05:11:18.256Z,99.10
2023-04-18T05:12:18.241Z,99.10
2023-04-18T05:13:18.246Z,99.10
2023-04-18T05:14:18.220Z,99.16
2023-04-18T05:15:18.200Z,99.26
2023-04-18T05:16:18.211Z,99.26
2023-04-18T05:17:18.189Z,99.37
2023-04-18T05:18:18.160Z,99.37
2023-04-18T05:19:18.194Z,99.52
2023-04-18T05:20:18.163Z,99.62
2023-04-18T05:21:18.178Z,99.62
2023-04-18T05:22:18.124Z,99.62
2023-04-18T05:23:18.153Z,99.82
2023-04-18T05:24:18.142Z,99.82
2023-04-18T05:25:18.106Z,99.93
2023-04-18T05:26:18.160Z,99.93
2023-04-18T05:27:18.292Z,99.93
2023-04-18T05:28:18.066Z,99.93
2023-04-18T05:29:18.071Z,99.99
2023-04-18T05:30:18.048Z,99.99
2023-04-18T05:31:18.075Z,99.99
2023-04-18T05:32:18.018Z,99.99
2023-04-18T05:33:18.035Z,99.99
2023-04-18T05:34:17.994Z,99.99
2023-04-18T05:35:18.002Z,99.99
2023-04-18T05:36:17.983Z,99.99
2023-04-18T05:37:18.003Z,99.99
2023-04-18T05:38:18.003Z,99.99
2023-04-18T05:39:17.936Z,99.99
2023-04-18T05:40:17.922Z,99.99
2023-04-18T05:41:17.936Z,99.99
2023-04-18T05:42:17.917Z,99.99
2023-04-18T05:43:17.927Z,99.99
2023-04-18T05:44:18.363Z,99.99
2023-04-18T05:45:17.887Z,99.99
2023-04-18T05:46:17.943Z,99.99
2023-04-18T05:47:17.866Z,99.99
2023-04-18T05:48:17.854Z,99.99
2023-04-18T05:49:17.865Z,99.99
2023-04-18T05:50:17.838Z,99.99
2023-04-18T05:51:17.854Z,99.99
2023-04-18T05:52:17.820Z,99.99
2023-04-18T05:53:17.818Z,99.99
2023-04-18T05:54:17.825Z,99.99
2023-04-18T05:55:17.797Z,99.99
2023-04-18T05:56:17.784Z,99.99
2023-04-18T05:57:17.766Z,99.99
2023-04-18T05:58:17.747Z,99.99
2023-04-18T05:59:17.783Z,99.99
2023-04-18T06:00:17.774Z,99.99
2023-04-18T06:01:17.749Z,99.99
2023-04-18T06:02:17.768Z,99.99
2023-04-18T06:03:17.946Z,99.99
2023-04-18T06:04:18.019Z,99.99
2023-04-18T06:05:18.125Z,99.99
2023-04-18T06:06:17.653Z,99.99
2023-04-18T06:07:17.680Z,99.99
2023-04-18T06:08:17.636Z,99.99
2023-04-18T06:09:17.713Z,99.99
2023-04-18T06:10:17.652Z,99.99
2023-04-18T06:11:17.621Z,99.99
2023-04-18T06:12:17.619Z,99.99
2023-04-18T06:13:17.592Z,99.99
2023-04-18T06:14:17.567Z,99.99
2023-04-18T06:15:17.599Z,99.99
2023-04-18T06:16:17.702Z,99.99
2023-04-18T06:17:17.560Z,99.99
2023-04-18T06:18:17.537Z,99.99
2023-04-18T06:19:17.562Z,99.99
2023-04-18T06:20:17.537Z,99.99
2023-04-18T06:21:17.504Z,99.99
2023-04-18T06:22:17.497Z,99.99
2023-04-18T06:23:17.517Z,99.99
2023-04-18T06:24:17.485Z,99.99
2023-04-18T06:25:17.929Z,99.99
2023-04-18T06:26:17.459Z,99.94
2023-04-18T06:27:28.310Z,99.94
2023-04-18T06:28:18.432Z,99.94
2023-04-18T06:29:17.532Z,99.99
2023-04-18T06:30:17.411Z,99.99
2023-04-18T06:31:17.467Z,99.94
2023-04-18T06:32:17.406Z,99.99
2023-04-18T06:33:17.399Z,99.99
2023-04-18T06:34:17.359Z,99.99
2023-04-18T06:35:17.374Z,99.84
2023-04-18T06:36:17.337Z,99.73
2023-04-18T06:37:17.363Z,99.52
2023-04-18T06:38:17.340Z,99.32
2023-04-18T06:39:17.336Z,99.22
2023-04-18T06:40:17.938Z,99.11
2023-04-18T06:41:17.314Z,98.76
2023-04-18T06:42:17.286Z,98.80
2023-04-18T06:43:17.295Z,98.55
2023-04-18T06:44:17.273Z,98.35
2023-04-18T06:45:17.279Z,98.24
2023-04-18T06:46:17.267Z,97.94
2023-04-18T06:47:17.232Z,97.73
2023-04-18T06:48:17.214Z,97.73
2023-04-18T06:49:17.222Z,97.63
2023-04-18T06:50:17.192Z,97.48
2023-04-18T06:51:17.192Z,97.48
2023-04-18T06:52:17.174Z,97.27
2023-04-18T06:53:17.185Z,96.75
2023-04-18T06:54:17.152Z,96.45
2023-04-18T06:55:17.156Z,96.34
2023-04-18T06:56:17.129Z,96.34
2023-04-18T06:57:17.123Z,95.99
2023-04-18T06:58:17.151Z,95.89
2023-04-18T06:59:17.114Z,95.37
2023-04-18T07:00:17.121Z,95.06
2023-04-18T07:01:17.166Z,95.17
2023-04-18T07:02:17.123Z,95.06
2023-04-18T07:03:17.183Z,94.85
2023-04-18T07:04:17.427Z,94.65
2023-04-18T07:05:17.046Z,94.34
2023-04-18T07:06:17.031Z,94.60
2023-04-18T07:07:17.040Z,94.71
2023-04-18T07:08:17.001Z,94.30
2023-04-18T07:09:17.017Z,94.30
2023-04-18T07:10:16.968Z,94.30
2023-04-18T07:11:17.040Z,94.30
2023-04-18T07:12:16.946Z,94.09
2023-04-18T07:13:16.971Z,93.88
2023-04-18T07:14:17.094Z,93.84
2023-04-18T07:15:16.930Z,93.54
2023-04-18T07:16:16.993Z,93.12
2023-04-18T07:17:16.947Z,93.06
2023-04-18T07:18:30.279Z,92.92
2023-04-18T07:19:17.896Z,93.02
2023-04-18T07:20:16.906Z,93.23
2023-04-18T07:21:16.906Z,92.92
2023-04-18T07:22:16.870Z,92.71
2023-04-18T07:23:16.866Z,92.77
2023-04-18T07:24:16.979Z,92.05
2023-04-18T07:25:16.848Z,91.53
2023-04-18T07:26:31.556Z,91.39
2023-04-18T07:27:16.815Z,90.98
2023-04-18T07:28:16.801Z,91.49
2023-04-18T07:29:16.805Z,91.44
2023-04-18T07:30:16.781Z,91.53
2023-04-18T07:31:16.897Z,91.02
2023-04-18T07:32:16.759Z,91.23
2023-04-18T07:33:16.796Z,91.44
2023-04-18T07:34:16.765Z,91.13
2023-04-18T07:35:16.743Z,91.13
2023-04-18T07:36:16.720Z,91.33
2023-04-18T07:37:16.739Z,91.44
2023-04-18T07:38:16.686Z,91.68
2023-04-18T07:39:16.724Z,91.78
2023-04-18T07:40:16.700Z,91.89
2023-04-18T07:41:16.671Z,92.20
2023-04-18T07:42:16.850Z,92.10
2023-04-18T07:43:16.670Z,92.40
2023-04-18T07:44:16.652Z,92.10
2023-04-18T07:45:16.592Z,92.10
2023-04-18T07:46:16.676Z,91.99
2023-04-18T07:47:16.618Z,91.99
2023-04-18T07:48:16.603Z,91.53
2023-04-18T07:49:16.751Z,91.13
2023-04-18T07:50:16.670Z,91.23
2023-04-18T07:51:16.614Z,91.33
2023-04-18T07:52:16.567Z,90.81
2023-04-18T07:53:16.536Z,90.61
2023-04-18T07:54:16.515Z,90.51
2023-04-18T07:55:16.573Z,90.09
2023-04-18T07:56:16.494Z,90.16
2023-04-18T07:57:16.506Z,89.85
2023-04-18T07:58:16.537Z,89.85
2023-04-18T07:59:16.755Z,89.34
2023-04-18T08:00:16.465Z,89.13
2023-04-18T08:01:16.458Z,89.44
2023-04-18T08:02:16.531Z,89.54
2023-04-18T08:03:16.666Z,89.23
2023-04-18T08:04:16.639Z,89.09
2023-04-18T08:05:16.550Z,88.68
2023-04-18T08:06:16.420Z,88.57
2023-04-18T08:07:16.401Z,88.57
2023-04-18T08:08:16.375Z,88.17
2023-04-18T08:09:16.547Z,88.27
2023-04-18T08:10:16.392Z,87.85
2023-04-18T08:11:16.326Z,88.17
2023-04-18T08:12:16.324Z,88.57
2023-04-18T08:13:16.389Z,88.06
2023-04-18T08:14:16.376Z,88.06
2023-04-18T08:15:16.340Z,88.47
2023-04-18T08:16:17.521Z,88.47
2023-04-18T08:17:16.271Z,88.51
2023-04-18T08:18:16.299Z,88.57
2023-04-18T08:19:16.476Z,88.47
2023-04-18T08:20:16.223Z,88.92
2023-04-18T08:21:16.229Z,88.82
2023-04-18T08:22:16.220Z,88.92
2023-04-18T08:23:16.248Z,89.13
2023-04-18T08:24:16.197Z,89.75
2023-04-18T08:25:16.222Z,89.34
2023-04-18T08:26:16.196Z,89.64
2023-04-18T08:27:16.211Z,89.34
2023-04-18T08:28:16.156Z,89.34
2023-04-18T08:29:16.227Z,89.54
2023-04-18T08:30:16.205Z,89.75
2023-04-18T08:31:16.218Z,89.75
2023-04-18T08:32:16.122Z,89.54
2023-04-18T08:33:16.146Z,89.13
2023-04-18T08:34:16.114Z,88.78
2023-04-18T08:35:16.142Z,88.17
2023-04-18T08:36:16.113Z,88.47
2023-04-18T08:37:16.053Z,88.17
2023-04-18T08:38:16.039Z,88.27
2023-04-18T08:39:16.233Z,88.37
2023-04-18T08:40:16.041Z,88.47
2023-04-18T08:41:16.023Z,88.33
2023-04-18T08:42:15.995Z,87.71
2023-04-18T08:43:16.020Z,86.89
2023-04-18T08:44:16.184Z,87.16
2023-04-18T08:45:15.994Z,87.05
2023-04-18T08:46:15.984Z,86.75
2023-04-18T08:47:15.995Z,86.50
2023-04-18T08:48:15.929Z,85.68
2023-04-18T08:49:16.223Z,84.76
2023-04-18T08:50:15.905Z,85.47
2023-04-18T08:51:15.925Z,84.76
2023-04-18T08:52:15.936Z,85.03
2023-04-18T08:53:15.892Z,84.20
2023-04-18T08:54:15.853Z,84.10
2023-04-18T08:55:15.931Z,83.55
2023-04-18T08:56:15.950Z,82.08
2023-04-18T08:57:15.877Z,82.49
2023-04-18T08:58:15.846Z,81.36
2023-04-18T08:59:16.077Z,81.32
2023-04-18T09:00:15.884Z,80.05
2023-04-18T09:01:15.888Z,79.34
2023-04-18T09:02:15.840Z,77.76
2023-04-18T09:03:15.851Z,78.17
2023-04-18T09:04:15.842Z,78.49
2023-04-18T09:05:15.784Z,78.79
2023-04-18T09:06:15.739Z,77.01
2023-04-18T09:07:15.769Z,76.81
2023-04-18T09:08:15.737Z,77.32
2023-04-18T09:09:15.877Z,75.41
2023-04-18T09:10:15.693Z,72.82
2023-04-18T09:11:15.706Z,68.92
2023-04-18T09:12:15.700Z,67.16
2023-04-18T09:13:15.682Z,67.53
2023-04-18T09:14:15.689Z,64.36
2023-04-18T09:15:15.699Z,63.75
2023-04-18T09:16:15.697Z,65.23
2023-04-18T09:17:15.628Z,66.21
2023-04-18T09:18:15.616Z,67.29
2023-04-18T09:19:15.760Z,68.95
2023-04-18T09:20:15.655Z,68.98
2023-04-18T09:21:15.573Z,68.44
2023-04-18T09:22:15.589Z,69.02
2023-04-18T09:23:15.567Z,68.21
2023-04-18T09:24:15.570Z,66.72
2023-04-18T09:25:15.549Z,66.65
2023-04-18T09:26:15.554Z,68.01
2023-04-18T09:27:15.570Z,67.69
2023-04-18T09:28:15.501Z,68.31
2023-04-18T09:29:15.626Z,68.13
2023-04-18T09:30:15.496Z,68.75
2023-04-18T09:31:15.644Z,69.19
2023-04-18T09:32:15.482Z,69.53
2023-04-18T09:33:15.448Z,70.27
2023-04-18T09:34:15.628Z,70.00
2023-04-18T09:35:15.448Z,71.12
2023-04-18T09:36:15.483Z,71.77
2023-04-18T09:37:15.476Z,71.12
2023-04-18T09:38:15.418Z,70.78
2023-04-18T09:39:15.630Z,71.60
2023-04-18T09:40:15.363Z,70.54
2023-04-18T09:41:15.409Z,69.32
2023-04-18T09:42:15.380Z,68.57
2023-04-18T09:43:15.346Z,69.42
2023-04-18T09:44:15.815Z,68.81
2023-04-18T09:45:15.311Z,68.71
2023-04-18T09:46:25.283Z,68.81
2023-04-18T09:47:15.281Z,67.22
2023-04-18T09:48:17.051Z,66.91
2023-04-18T09:49:16.189Z,66.78
2023-04-18T09:50:15.268Z,67.29
2023-04-18T09:51:15.249Z,66.99
2023-04-18T09:52:15.257Z,67.13
2023-04-18T09:53:15.227Z,65.36
2023-04-18T09:54:15.455Z,61.23
2023-04-18T09:55:15.191Z,60.42
2023-04-18T09:56:15.224Z,59.99
2023-04-18T09:57:15.173Z,59.34
2023-04-18T09:58:15.180Z,59.14
2023-04-18T09:59:15.393Z,59.70
2023-04-18T10:00:15.260Z,61.75
2023-04-18T10:01:15.168Z,64.45
2023-04-18T10:02:15.183Z,65.50
2023-04-18T10:03:15.231Z,64.89
2023-04-18T10:04:15.458Z,62.46
2023-04-18T10:05:15.106Z,62.70
2023-04-18T10:06:15.114Z,63.94
2023-04-18T10:07:15.066Z,64.58
2023-04-18T10:08:15.076Z,63.94
2023-04-18T10:09:15.395Z,62.76
2023-04-18T10:10:15.077Z,63.33
2023-04-18T10:11:15.032Z,64.15
2023-04-18T10:12:15.026Z,60.75
2023-04-18T10:13:15.010Z,58.36
2023-04-18T10:14:15.290Z,58.97
2023-04-18T10:15:14.990Z,58.11
2023-04-18T10:16:15.047Z,60.11
2023-04-18T10:17:15.022Z,61.18
2023-04-18T10:18:15.034Z,62.43
2023-04-18T10:19:15.149Z,61.11
2023-04-18T10:20:14.942Z,62.46
2023-04-18T10:21:14.898Z,63.74
2023-04-18T10:22:14.917Z,64.28
2023-04-18T10:23:14.901Z,63.54
2023-04-18T10:24:15.139Z,64.45
2023-04-18T10:25:14.872Z,63.97
2023-04-18T10:26:14.885Z,65.22
2023-04-18T10:27:14.845Z,65.12
2023-04-18T10:28:14.879Z,66.24
2023-04-18T10:29:14.984Z,65.83
2023-04-18T10:30:14.833Z,65.19
2023-04-18T10:31:14.820Z,65.30
2023-04-18T10:32:14.800Z,65.60
2023-04-18T10:33:21.942Z,64.89
2023-04-18T10:34:15.787Z,65.30
2023-04-18T10:35:14.836Z,65.43
2023-04-18T10:36:14.804Z,65.46
2023-04-18T10:37:14.738Z,65.05
2023-04-18T10:38:14.744Z,65.05
2023-04-18T10:39:14.711Z,65.77
2023-04-18T10:40:14.728Z,66.30
2023-04-18T10:41:14.694Z,66.50
2023-04-18T10:42:14.707Z,66.47
2023-04-18T10:43:14.687Z,66.38
2023-04-18T10:44:15.125Z,66.20
2023-04-18T10:45:14.668Z,66.61
2023-04-18T10:46:30.364Z,67.02
2023-04-18T10:47:15.874Z,66.91
2023-04-18T10:48:14.646Z,65.86
2023-04-18T10:49:14.951Z,65.86
2023-04-18T10:50:14.617Z,65.36
2023-04-18T10:51:14.598Z,65.66
2023-04-18T10:52:14.600Z,65.25
2023-04-18T10:53:14.585Z,65.19
2023-04-18T10:54:14.735Z,65.19
2023-04-18T10:55:14.575Z,65.69
2023-04-18T10:56:14.553Z,66.20
2023-04-18T10:57:14.511Z,66.20
2023-04-18T10:58:14.533Z,66.50
2023-04-18T10:59:14.524Z,65.97
2023-04-18T11:00:14.621Z,65.43
2023-04-18T11:01:14.576Z,64.79
2023-04-18T11:02:14.552Z,63.13
2023-04-18T11:03:14.629Z,62.82
2023-04-18T11:04:15.090Z,63.67
2023-04-18T11:05:14.435Z,64.11
2023-04-18T11:06:14.447Z,65.02
2023-04-18T11:07:14.438Z,64.34
2023-04-18T11:08:14.440Z,65.19
2023-04-18T11:09:14.476Z,66.10
2023-04-18T11:10:14.442Z,65.66
2023-04-18T11:11:14.574Z,66.17
2023-04-18T11:12:14.383Z,65.36
2023-04-18T11:13:14.378Z,65.16
2023-04-18T11:14:14.661Z,64.75
2023-04-18T11:15:14.578Z,65.97
2023-04-18T11:16:14.391Z,64.51
2023-04-18T11:17:14.318Z,64.20
2023-04-18T11:18:14.386Z,64.51
2023-04-18T11:19:14.305Z,64.00
2023-04-18T11:20:14.349Z,63.59
2023-04-18T11:21:14.295Z,64.14
2023-04-18T11:22:14.288Z,64.98
2023-04-18T11:23:14.268Z,65.19
2023-04-18T11:24:14.460Z,65.89
2023-04-18T11:25:14.235Z,66.30
2023-04-18T11:26:14.243Z,66.00
2023-04-18T11:27:14.218Z,66.30
2023-04-18T11:28:14.218Z,66.27
2023-04-18T11:29:14.207Z,65.57
2023-04-18T11:30:14.220Z,63.51
2023-04-18T11:31:14.180Z,63.37
2023-04-18T11:32:14.202Z,61.62
2023-04-18T11:33:14.195Z,61.69
2023-04-18T11:34:14.328Z,60.81
2023-04-18T11:35:14.153Z,61.32
2023-04-18T11:36:14.127Z,60.81
2023-04-18T11:37:14.101Z,60.63
2023-04-18T11:38:14.119Z,59.41
2023-04-18T11:39:14.096Z,60.15
2023-04-18T11:40:14.106Z,61.20
2023-04-18T11:41:14.078Z,62.14
2023-04-18T11:42:14.056Z,62.58
2023-04-18T11:43:14.031Z,62.88
2023-04-18T11:44:14.181Z,64.00
2023-04-18T11:45:14.015Z,63.46
2023-04-18T11:46:14.048Z,63.67
2023-04-18T11:47:13.997Z,63.36
2023-04-18T11:48:13.994Z,63.16
2023-04-18T11:49:14.560Z,62.11
2023-04-18T11:50:14.006Z,61.72
2023-04-18T11:51:13.970Z,62.10
2023-04-18T11:52:13.956Z,59.86
2023-04-18T11:53:13.932Z,57.91
2023-04-18T11:54:14.113Z,57.78
2023-04-18T11:55:13.903Z,57.48
2023-04-18T11:56:13.929Z,58.18
2023-04-18T11:57:13.891Z,59.94
2023-04-18T11:58:13.898Z,58.62
2023-04-18T11:59:13.892Z,59.18
2023-04-18T12:00:13.906Z,61.04
2023-04-18T12:01:13.904Z,61.14
2023-04-18T12:02:16.691Z,60.94
2023-04-18T12:03:14.103Z,61.98
2023-04-18T12:04:14.244Z,61.81
2023-04-18T12:05:13.977Z,62.41
2023-04-18T12:06:13.852Z,62.01
2023-04-18T12:07:13.797Z,61.68
2023-04-18T12:08:13.794Z,61.27
2023-04-18T12:09:13.896Z,62.21
2023-04-18T12:10:13.767Z,62.29
2023-04-18T12:11:13.737Z,61.68
2023-04-18T12:12:13.736Z,61.11
2023-04-18T12:13:13.716Z,60.04
2023-04-18T12:14:13.945Z,58.69
2023-04-18T12:15:13.704Z,57.12
2023-04-18T12:16:13.796Z,57.50
2023-04-18T12:17:13.664Z,56.36
2023-04-18T12:18:13.711Z,56.76
2023-04-18T12:19:13.830Z,56.38
2023-04-18T12:20:13.750Z,55.70
2023-04-18T12:21:13.624Z,56.64
2023-04-18T12:22:13.617Z,56.74
2023-04-18T12:23:13.623Z,56.95
2023-04-18T12:24:13.897Z,57.37
2023-04-18T12:25:13.595Z,57.58
2023-04-18T12:26:13.640Z,56.64
2023-04-18T12:27:13.575Z,56.57
2023-04-18T12:28:13.573Z,56.67
2023-04-18T12:29:13.937Z,56.67
2023-04-18T12:30:13.665Z,56.95
2023-04-18T12:31:13.534Z,55.63
2023-04-18T12:32:13.554Z,56.01
2023-04-18T12:33:13.518Z,56.44
2023-04-18T12:34:13.723Z,58.36
2023-04-18T12:35:13.491Z,57.65
2023-04-18T12:36:13.483Z,56.95
2023-04-18T12:37:13.439Z,56.74
2023-04-18T12:38:13.464Z,56.44
2023-04-18T12:39:13.431Z,56.03
2023-04-18T12:40:13.466Z,57.37
2023-04-18T12:41:13.431Z,58.31
2023-04-18T12:42:13.399Z,57.73
2023-04-18T12:43:13.399Z,57.56
2023-04-18T12:44:13.593Z,59.72
2023-04-18T12:45:13.390Z,59.31
2023-04-18T12:46:13.422Z,58.88
2023-04-18T12:47:13.348Z,58.88
2023-04-18T12:48:13.377Z,59.39
2023-04-18T12:49:13.340Z,59.79
2023-04-18T12:50:13.336Z,59.59
2023-04-18T12:51:13.369Z,59.28
2023-04-18T12:52:13.309Z,58.37